Time;durP1;ratioP1;P1;durP2;ratioP2;P2;SDS_P1;SDS_P2;PMS_P1;PMS_P2;Temp;Humidity;BMP_temperature;BMP_pressure;BME280_temperature;BME280_humidity;BME280_pressure;Samples;Min_cycle;Max_cycle;Signal;HPM_P1;HPM_P2
2022/10/25 00:01:17;;;;;;;0.90;0.35;;;13.10;99.90;;;;;;5078970;28;20399;-81
2022/10/25 00:03:43;;;;;;;0.10;0.00;;;12.90;99.90;;;;;;5095577;28;20052;-81
2022/10/25 00:06:10;;;;;;;0.20;0.20;;;13.00;99.90;;;;;;5095578;28;20043;-81
2022/10/25 00:08:36;;;;;;;0.00;0.00;;;13.00;99.90;;;;;;5095503;28;20086;-81
2022/10/25 00:11:02;;;;;;;0.10;0.00;;;13.00;99.90;;;;;;5078501;28;20060;-81
2022/10/25 00:13:28;;;;;;;0.00;0.00;;;13.00;99.90;;;;;;5094971;28;20491;-81
2022/10/25 00:15:54;;;;;;;0.00;0.00;;;13.10;99.90;;;;;;5078557;28;20089;-81
2022/10/25 00:18:19;;;;;;;0.60;0.10;;;13.00;99.90;;;;;;5078221;28;20093;-81
2022/10/25 00:20:45;;;;;;;0.17;0.00;;;13.00;99.90;;;;;;5095536;28;20059;-81
2022/10/25 00:23:14;;;;;;;0.20;0.20;;;13.00;99.90;;;;;;5078250;28;20079;-81
2022/10/25 00:25:40;;;;;;;0.10;0.00;;;13.00;99.90;;;;;;5095813;28;20112;-81
2022/10/25 00:28:06;;;;;;;4.10;0.88;;;12.90;99.90;;;;;;5077993;28;20479;-81
2022/10/25 00:30:32;;;;;;;0.00;0.00;;;12.80;99.90;;;;;;5078237;28;20399;-81
2022/10/25 00:32:58;;;;;;;0.20;0.10;;;12.80;99.90;;;;;;5094875;28;20078;-81
2022/10/25 00:35:24;;;;;;;0.15;0.15;;;12.90;99.90;;;;;;5094912;28;20051;-81
2022/10/25 00:37:50;;;;;;;0.05;0.05;;;12.70;99.90;;;;;;5094576;28;20048;-81
2022/10/25 00:40:17;;;;;;;0.20;0.10;;;12.80;99.90;;;;;;5077842;28;20048;-80
2022/10/25 00:42:43;;;;;;;0.10;0.10;;;12.70;99.90;;;;;;5077215;28;20048;-81
2022/10/25 00:45:26;;;;;;;0.45;0.43;;;12.70;99.90;;;;;;5077916;28;20051;-81
2022/10/25 00:47:55;;;;;;;0.10;0.00;;;12.60;99.90;;;;;;5094659;28;20110;-80
2022/10/25 00:50:26;;;;;;;0.00;0.00;;;12.60;99.90;;;;;;5094523;28;20044;-81
2022/10/25 00:52:55;;;;;;;0.30;0.30;;;12.60;99.90;;;;;;5078164;28;20093;-81
2022/10/25 00:55:24;;;;;;;0.00;0.00;;;12.60;99.90;;;;;;5077514;28;20051;-81
2022/10/25 00:57:52;;;;;;;0.00;0.00;;;12.50;99.90;;;;;;5094442;28;20051;-81
2022/10/25 01:00:18;;;;;;;0.05;0.05;;;12.60;99.90;;;;;;5094574;28;20130;-80
2022/10/25 01:02:44;;;;;;;0.00;0.00;;;12.60;99.90;;;;;;5094036;28;20507;-81
2022/10/25 01:05:10;;;;;;;0.05;0.03;;;12.60;99.90;;;;;;5094003;28;20044;-81
2022/10/25 01:07:36;;;;;;;0.13;0.10;;;12.60;99.90;;;;;;5094266;28;20134;-81
2022/10/25 01:10:02;;;;;;;0.00;0.00;;;12.60;99.90;;;;;;5094208;28;20086;-81
2022/10/25 01:12:28;;;;;;;0.00;0.00;;;12.60;99.90;;;;;;5077778;28;20048;-81
2022/10/25 01:14:54;;;;;;;0.22;0.10;;;12.60;99.90;;;;;;5093941;28;20083;-81
2022/10/25 01:17:47;;;;;;;0.22;0.22;;;12.70;99.90;;;;;;5094070;28;20052;-81
2022/10/25 01:21:01;;;;;;;0.13;0.00;;;12.70;99.90;;;;;;5094363;28;20040;-81
2022/10/25 01:24:01;;;;;;;0.00;0.00;;;12.60;99.90;;;;;;5094163;28;20047;-81
2022/10/25 01:27:10;;;;;;;0.03;0.03;;;12.70;99.90;;;;;;5093950;28;20040;-81
2022/10/25 01:29:59;;;;;;;0.32;0.32;;;12.60;99.90;;;;;;5093759;28;20138;-81
2022/10/25 01:32:33;;;;;;;0.10;0.10;;;12.60;99.90;;;;;;5093791;28;20044;-81
2022/10/25 01:35:25;;;;;;;0.30;0.30;;;12.60;99.90;;;;;;5076619;28;20047;-81
2022/10/25 01:38:09;;;;;;;0.08;0.00;;;12.60;99.90;;;;;;5093421;28;20048;-81
2022/10/25 01:40:48;;;;;;;0.00;0.00;;;12.50;99.90;;;;;;5076616;28;20399;-81
2022/10/25 01:43:37;;;;;;;0.40;0.13;;;12.50;99.90;;;;;;5077391;28;20392;-81
2022/10/25 01:46:27;;;;;;;0.00;0.00;;;12.50;99.90;;;;;;5076988;28;20139;-81
2022/10/25 01:49:03;;;;;;;0.00;0.00;;;12.50;99.90;;;;;;5093960;28;20051;-81
2022/10/25 01:51:28;;;;;;;0.10;0.10;;;12.50;99.90;;;;;;5076951;28;20049;-81
2022/10/25 01:53:54;;;;;;;0.35;0.35;;;12.40;99.90;;;;;;5093135;28;20047;-81
2022/10/25 01:56:31;;;;;;;0.00;0.00;;;12.40;99.90;;;;;;5093556;28;20052;-81
2022/10/25 01:59:13;;;;;;;0.13;0.10;;;12.40;99.90;;;;;;5076509;28;20051;-81
2022/10/25 02:01:59;;;;;;;0.00;0.00;;;12.40;99.90;;;;;;5076798;28;20099;-81
2022/10/25 02:04:34;;;;;;;0.15;0.05;;;12.40;99.90;;;;;;5092691;28;20066;-81
2022/10/25 02:06:59;;;;;;;;;;;12.40;99.90;;;;;;5093783;28;20094;-81
2022/10/25 02:10:13;;;;;;;0.00;0.00;;;12.40;99.90;;;;;;5093186;28;19924;-81
2022/10/25 02:13:24;;;;;;;0.17;0.17;;;12.40;99.90;;;;;;5035434;28;20056;-81
2022/10/25 02:16:01;;;;;;;0.10;0.00;;;12.40;99.90;;;;;;4976286;28;20043;-81
2022/10/25 02:18:30;;;;;;;0.00;0.00;;;12.40;99.90;;;;;;4976566;28;20069;-81
2022/10/25 02:20:57;;;;;;;0.00;0.00;;;12.40;99.90;;;;;;4976432;28;20077;-81
2022/10/25 02:23:25;;;;;;;0.00;0.00;;;12.50;99.90;;;;;;4992559;28;20066;-81
2022/10/25 02:25:53;;;;;;;0.00;0.00;;;12.50;99.90;;;;;;4976425;28;20058;-81
2022/10/25 02:28:23;;;;;;;0.15;0.05;;;12.60;99.90;;;;;;4976181;28;20133;-81
2022/10/25 02:30:50;;;;;;;0.43;0.00;;;12.60;99.90;;;;;;4976174;28;20089;-81
2022/10/25 02:33:15;;;;;;;0.08;0.08;;;12.60;99.90;;;;;;4975274;28;20522;-81
2022/10/25 02:35:41;;;;;;;0.08;0.08;;;12.60;99.90;;;;;;4960009;28;20148;-81
2022/10/25 02:38:07;;;;;;;0.08;0.08;;;12.60;99.90;;;;;;4976023;28;20097;-79
2022/10/25 02:40:34;;;;;;;0.00;0.00;;;12.70;99.90;;;;;;4975949;28;20098;-81
2022/10/25 02:42:59;;;;;;;0.00;0.00;;;12.70;99.90;;;;;;4976125;28;20065;-81
2022/10/25 02:45:25;;;;;;;0.00;0.00;;;12.80;99.90;;;;;;4981013;28;20050;-80
2022/10/25 02:47:51;;;;;;;0.13;0.13;;;12.80;99.90;;;;;;5035788;28;20044;-81
2022/10/25 02:50:17;;;;;;;0.00;0.00;;;12.80;99.90;;;;;;5092665;28;20480;-81
2022/10/25 02:52:42;;;;;;;0.00;0.00;;;12.80;99.90;;;;;;5092661;28;20131;-81
2022/10/25 02:55:08;;;;;;;0.00;0.00;;;12.80;99.90;;;;;;5092369;28;20101;-79
2022/10/25 02:57:37;;;;;;;1.63;0.38;;;12.80;99.90;;;;;;5075635;28;20048;-81
2022/10/25 03:00:05;;;;;;;0.38;0.38;;;12.80;99.90;;;;;;5093500;28;20040;-81
2022/10/25 03:02:31;;;;;;;0.00;0.00;;;12.80;99.90;;;;;;5092761;28;20036;-81
2022/10/25 03:04:57;;;;;;;1.95;0.45;;;12.80;99.90;;;;;;5076061;28;20135;-81
2022/10/25 03:07:22;;;;;;;0.10;0.10;;;12.80;99.90;;;;;;5095464;28;20426;-81
2022/10/25 03:09:48;;;;;;;0.00;0.00;;;12.80;99.90;;;;;;5096660;28;20040;-81
2022/10/25 03:12:13;;;;;;;0.95;0.50;;;12.80;99.90;;;;;;5096418;28;20036;-81
2022/10/25 03:14:39;;;;;;;0.13;0.13;;;12.90;99.90;;;;;;5096336;28;20036;-81
2022/10/25 03:17:06;;;;;;;0.13;0.00;;;12.90;99.90;;;;;;5096364;28;20069;-81
2022/10/25 03:19:32;;;;;;;0.00;0.00;;;12.80;99.90;;;;;;5096321;28;20048;-81
2022/10/25 03:21:58;;;;;;;0.38;0.32;;;12.80;99.90;;;;;;5096311;28;20400;-81
2022/10/25 03:24:24;;;;;;;0.00;0.00;;;12.80;99.90;;;;;;5096026;28;20467;-80
2022/10/25 03:26:49;;;;;;;0.52;0.25;;;12.80;99.90;;;;;;5079438;28;20052;-81
2022/10/25 03:29:15;;;;;;;0.75;0.30;;;12.80;99.90;;;;;;5096408;28;20127;-81
2022/10/25 03:31:40;;;;;;;0.00;0.00;;;12.80;99.90;;;;;;5079546;28;20048;-81
2022/10/25 03:34:06;;;;;;;0.32;0.32;;;12.80;99.90;;;;;;5078995;28;20075;-81
2022/10/25 03:36:32;;;;;;;0.98;0.45;;;12.80;99.90;;;;;;5095853;28;20472;-81
2022/10/25 03:38:58;;;;;;;0.90;0.55;;;13.00;99.90;;;;;;5096186;28;20459;-81
2022/10/25 03:41:23;;;;;;;0.10;0.00;;;12.90;99.90;;;;;;5095630;28;20496;-81
2022/10/25 03:43:49;;;;;;;0.00;0.00;;;12.90;99.90;;;;;;5095835;28;20096;-81
2022/10/25 03:46:14;;;;;;;0.00;0.00;;;13.00;99.90;;;;;;5079243;28;20560;-81
2022/10/25 03:48:41;;;;;;;2.28;0.40;;;12.90;99.90;;;;;;5095707;28;20051;-81
2022/10/25 03:51:07;;;;;;;0.10;0.05;;;13.00;99.90;;;;;;5095802;28;20424;-81
2022/10/25 03:53:32;;;;;;;0.20;0.00;;;13.10;99.90;;;;;;5095640;28;20040;-81
2022/10/25 03:55:58;;;;;;;0.10;0.10;;;12.90;99.90;;;;;;5095622;28;20071;-81
2022/10/25 03:58:23;;;;;;;0.10;0.05;;;13.00;99.90;;;;;;5095588;28;20032;-81
2022/10/25 04:00:49;;;;;;;0.43;0.17;;;13.00;99.90;;;;;;5078712;28;20074;-81
2022/10/25 04:03:15;;;;;;;0.00;0.00;;;13.10;99.90;;;;;;5095588;28;20128;-81
2022/10/25 04:05:40;;;;;;;0.80;0.00;;;13.10;99.90;;;;;;5078978;28;20052;-80
2022/10/25 04:08:06;;;;;;;0.08;0.08;;;13.10;99.90;;;;;;5095239;28;20047;-81
2022/10/25 04:10:32;;;;;;;0.20;0.20;;;13.10;99.90;;;;;;5095257;28;20036;-81
2022/10/25 04:12:58;;;;;;;0.00;0.00;;;13.10;99.90;;;;;;5095284;28;20086;-81
2022/10/25 04:15:24;;;;;;;0.00;0.00;;;13.10;99.90;;;;;;5078581;28;20091;-81
2022/10/25 04:17:53;;;;;;;0.00;0.00;;;13.10;99.90;;;;;;5078137;28;20105;-81
2022/10/25 04:20:19;;;;;;;0.40;0.20;;;13.10;99.90;;;;;;5078233;28;20146;-81
2022/10/25 04:22:44;;;;;;;0.00;0.00;;;13.00;99.90;;;;;;5095205;28;20143;-81
2022/10/25 04:25:10;;;;;;;0.00;0.00;;;13.10;99.90;;;;;;5095050;28;20107;-80
2022/10/25 04:27:36;;;;;;;0.00;0.00;;;13.10;99.90;;;;;;5078962;28;20056;-81
2022/10/25 04:30:02;;;;;;;0.10;0.10;;;13.10;99.90;;;;;;5078191;28;20472;-81
2022/10/25 04:32:28;;;;;;;0.20;0.20;;;13.10;99.90;;;;;;5095005;28;20083;-81
2022/10/25 04:34:53;;;;;;;0.08;0.00;;;13.10;99.90;;;;;;5094497;28;20487;-81
2022/10/25 04:37:19;;;;;;;0.00;0.00;;;13.00;99.90;;;;;;5094613;28;20052;-81
2022/10/25 04:39:45;;;;;;;0.00;0.00;;;13.20;99.90;;;;;;5077980;28;20052;-81
2022/10/25 04:42:10;;;;;;;0.08;0.00;;;13.10;99.90;;;;;;5094734;28;20044;-80
2022/10/25 04:44:36;;;;;;;0.52;0.10;;;13.10;99.90;;;;;;5094749;28;20056;-80
2022/10/25 04:47:04;;;;;;;0.00;0.00;;;13.10;99.90;;;;;;5095594;28;20158;-81
2022/10/25 04:49:30;;;;;;;0.10;0.00;;;13.10;99.90;;;;;;5094479;28;20109;-81
2022/10/25 04:51:57;;;;;;;0.22;0.22;;;13.10;99.90;;;;;;5094410;28;20399;-81
2022/10/25 04:54:22;;;;;;;0.10;0.10;;;13.00;99.90;;;;;;5094127;28;20044;-80
2022/10/25 04:56:48;;;;;;;0.00;0.00;;;13.00;99.90;;;;;;5077498;28;20126;-81
2022/10/25 04:59:13;;;;;;;0.43;0.20;;;13.10;99.90;;;;;;5094769;28;20043;-81
2022/10/25 05:01:39;;;;;;;0.00;0.00;;;13.00;99.90;;;;;;5094364;28;20090;-81
2022/10/25 05:04:04;;;;;;;0.05;0.05;;;13.00;99.90;;;;;;5077454;28;20048;-81
2022/10/25 05:06:30;;;;;;;0.00;0.00;;;12.90;99.90;;;;;;5094235;28;20419;-81
2022/10/25 05:08:56;;;;;;;0.00;0.00;;;12.90;99.90;;;;;;5094108;28;20040;-81
2022/10/25 05:11:23;;;;;;;1.02;0.45;;;12.90;99.90;;;;;;5077287;28;20056;-81
2022/10/25 05:13:49;;;;;;;0.65;0.65;;;12.90;99.90;;;;;;5077116;28;20040;-81
2022/10/25 05:16:20;;;;;;;0.00;0.00;;;12.80;99.90;;;;;;5093948;28;20047;-81
2022/10/25 05:18:46;;;;;;;0.00;0.00;;;12.80;99.90;;;;;;5093734;28;20060;-81
2022/10/25 05:21:13;;;;;;;1.25;0.38;;;12.80;99.90;;;;;;5093688;28;20047;-81
2022/10/25 05:23:38;;;;;;;0.00;0.00;;;12.70;99.90;;;;;;5077176;28;20086;-81
2022/10/25 05:26:13;;;;;;;0.00;0.00;;;12.70;99.90;;;;;;5094303;28;20475;-81
2022/10/25 05:28:40;;;;;;;0.00;0.00;;;12.70;99.90;;;;;;5076711;28;20044;-81
2022/10/25 05:31:14;;;;;;;0.10;0.10;;;12.70;99.90;;;;;;5093722;28;20044;-81
2022/10/25 05:33:40;;;;;;;0.20;0.20;;;12.60;99.90;;;;;;5076795;28;20077;-81
2022/10/25 05:36:06;;;;;;;0.00;0.00;;;12.60;99.90;;;;;;5093409;28;20051;-81
2022/10/25 05:38:32;;;;;;;0.00;0.00;;;12.70;99.90;;;;;;5077073;28;20381;-81
2022/10/25 05:40:59;;;;;;;2.20;0.45;;;12.70;99.90;;;;;;5093880;28;20055;-81
2022/10/25 05:43:26;;;;;;;0.10;0.10;;;12.70;99.90;;;;;;5076640;28;20055;-81
2022/10/25 05:45:59;;;;;;;0.32;0.17;;;12.70;99.90;;;;;;5093453;28;20051;-81
2022/10/25 05:48:25;;;;;;;0.00;0.00;;;12.70;99.90;;;;;;5093520;28;20392;-81
2022/10/25 05:50:52;;;;;;;0.00;0.00;;;12.60;99.90;;;;;;5093353;28;20177;-81
2022/10/25 05:53:18;;;;;;;0.00;0.00;;;12.60;99.90;;;;;;5093248;28;20051;-81
2022/10/25 05:55:44;;;;;;;0.00;0.00;;;12.60;99.90;;;;;;5093590;28;20036;-81
2022/10/25 05:58:09;;;;;;;0.10;0.10;;;12.60;99.90;;;;;;5093573;28;20422;-81
2022/10/25 06:00:35;;;;;;;0.00;0.00;;;12.60;99.90;;;;;;5076722;28;20052;-81
2022/10/25 06:03:01;;;;;;;0.00;0.00;;;12.60;99.90;;;;;;5076341;28;20139;-81
2022/10/25 06:05:27;;;;;;;0.10;0.10;;;12.60;99.90;;;;;;5093766;28;20139;-81
2022/10/25 06:07:53;;;;;;;1.23;0.43;;;12.60;99.90;;;;;;5077048;28;20491;-81
2022/10/25 06:10:18;;;;;;;0.00;0.00;;;12.50;99.90;;;;;;5076511;28;20098;-81
2022/10/25 06:12:44;;;;;;;0.22;0.22;;;12.50;99.90;;;;;;5093153;28;20438;-81
2022/10/25 06:15:10;;;;;;;0.00;0.00;;;12.50;99.90;;;;;;5092837;28;20391;-81
2022/10/25 06:17:35;;;;;;;0.00;0.00;;;12.40;99.90;;;;;;5092936;28;20089;-81
2022/10/25 06:20:01;;;;;;;0.00;0.00;;;12.50;99.90;;;;;;5092916;28;20040;-81
2022/10/25 06:22:27;;;;;;;0.35;0.15;;;12.40;99.90;;;;;;5076670;28;20043;-81
2022/10/25 06:24:52;;;;;;;0.90;0.43;;;12.50;99.90;;;;;;5076175;28;20139;-81
2022/10/25 06:27:18;;;;;;;0.00;0.00;;;12.50;99.90;;;;;;5092221;28;20488;-81
2022/10/25 06:29:43;;;;;;;2.17;0.10;;;12.40;99.90;;;;;;5075973;28;20056;-81
2022/10/25 06:32:09;;;;;;;0.00;0.00;;;12.50;99.90;;;;;;5076163;28;20058;-81
2022/10/25 06:34:34;;;;;;;0.00;0.00;;;12.50;99.90;;;;;;5076005;28;20083;-81
2022/10/25 06:37:00;;;;;;;0.10;0.00;;;12.40;99.90;;;;;;5092639;28;20052;-81
2022/10/25 06:39:26;;;;;;;0.13;0.00;;;12.40;99.90;;;;;;5092598;28;20052;-81
2022/10/25 06:41:51;;;;;;;0.00;0.00;;;12.50;99.90;;;;;;5094925;28;20036;-81
2022/10/25 06:44:17;;;;;;;0.00;0.00;;;12.60;99.90;;;;;;5096983;28;20047;-81
2022/10/25 06:46:42;;;;;;;0.00;0.00;;;12.50;99.90;;;;;;5079928;28;20044;-81
2022/10/25 06:49:08;;;;;;;0.00;0.00;;;12.60;99.90;;;;;;5080150;28;20056;-81
2022/10/25 06:51:35;;;;;;;0.00;0.00;;;12.60;99.90;;;;;;5096840;28;20040;-81
2022/10/25 06:54:08;;;;;;;0.30;0.00;;;12.60;99.90;;;;;;5096669;28;20040;-81
2022/10/25 06:56:35;;;;;;;0.40;0.20;;;12.60;99.90;;;;;;5079971;28;20052;-81
2022/10/25 06:59:01;;;;;;;0.10;0.00;;;12.70;99.90;;;;;;5079862;28;20040;-81
2022/10/25 07:01:27;;;;;;;0.28;0.28;;;12.70;99.90;;;;;;5096677;28;20131;-81
2022/10/25 07:03:53;;;;;;;0.00;0.00;;;12.80;99.90;;;;;;5079709;28;20039;-81
2022/10/25 07:06:28;;;;;;;0.00;0.00;;;12.70;99.90;;;;;;5097186;28;20399;-81
2022/10/25 07:08:59;;;;;;;0.00;0.00;;;12.80;99.90;;;;;;5079426;28;20480;-81
2022/10/25 07:11:26;;;;;;;0.00;0.00;;;12.80;99.90;;;;;;5096362;28;20055;-81
2022/10/25 07:13:52;;;;;;;0.00;0.00;;;12.70;99.90;;;;;;5096174;28;20126;-81
2022/10/25 07:16:19;;;;;;;0.95;0.90;;;12.90;99.90;;;;;;5079490;28;20159;-81
2022/10/25 07:18:45;;;;;;;0.10;0.10;;;13.00;99.90;;;;;;5079798;28;20091;-81
2022/10/25 07:21:14;;;;;;;0.10;0.00;;;13.00;99.90;;;;;;5079026;28;20146;-81
2022/10/25 07:23:43;;;;;;;0.00;0.00;;;13.00;99.90;;;;;;5079394;28;20090;-81
2022/10/25 07:26:21;;;;;;;0.08;0.00;;;13.10;99.90;;;;;;5079191;28;20395;-81
2022/10/25 07:28:48;;;;;;;0.43;0.17;;;13.10;99.90;;;;;;5079480;28;20484;-81
2022/10/25 07:31:17;;;;;;;0.00;0.00;;;13.20;99.90;;;;;;5096602;28;20466;-81
2022/10/25 07:33:43;;;;;;;0.25;0.15;;;13.20;99.90;;;;;;5079409;28;20040;-81
2022/10/25 07:36:09;;;;;;;0.00;0.00;;;13.30;99.90;;;;;;5078952;28;20117;-81
2022/10/25 07:38:35;;;;;;;1.65;0.25;;;13.30;99.90;;;;;;5096147;28;20051;-81
2022/10/25 07:41:00;;;;;;;0.00;0.00;;;13.40;99.90;;;;;;5078432;28;20138;-81
2022/10/25 07:43:27;;;;;;;10.63;1.23;;;13.50;99.90;;;;;;5095946;28;20070;-81
2022/10/25 07:45:53;;;;;;;0.00;0.00;;;13.50;99.90;;;;;;5095835;28;20044;-80
2022/10/25 07:48:19;;;;;;;0.40;0.40;;;13.50;99.90;;;;;;5078915;28;20048;-81
2022/10/25 07:50:45;;;;;;;0.32;0.10;;;13.60;99.90;;;;;;5095707;28;20051;-80
2022/10/25 07:53:10;;;;;;;0.00;0.00;;;13.70;99.90;;;;;;5078328;28;20377;-81
2022/10/25 07:55:36;;;;;;;0.10;0.10;;;13.80;99.90;;;;;;5078686;28;20376;-81
2022/10/25 07:58:04;;;;;;;0.28;0.10;;;13.90;99.90;;;;;;5078994;28;20064;-80
2022/10/25 08:00:30;;;;;;;0.00;0.00;;;13.90;99.90;;;;;;5078455;28;20479;-80
2022/10/25 08:02:56;;;;;;;0.00;0.00;;;14.10;99.90;;;;;;5095455;28;20114;-81
2022/10/25 08:05:22;;;;;;;0.08;0.08;;;14.10;99.90;;;;;;5078533;28;20039;-81
2022/10/25 08:07:49;;;;;;;0.20;0.20;;;14.30;99.90;;;;;;5078415;28;20046;-81
2022/10/25 08:10:15;;;;;;;0.00;0.00;;;14.40;99.90;;;;;;5078596;28;20499;-81
2022/10/25 08:12:41;;;;;;;0.15;0.00;;;14.50;99.90;;;;;;5078431;28;20044;-81
2022/10/25 08:15:07;;;;;;;0.00;0.00;;;14.50;99.90;;;;;;5078048;28;20449;-81
2022/10/25 08:17:32;;;;;;;0.30;0.03;;;14.50;99.90;;;;;;5078227;28;20056;-81
2022/10/25 08:19:59;;;;;;;0.10;0.10;;;14.60;99.90;;;;;;5078234;28;20040;-81
2022/10/25 08:22:24;;;;;;;0.90;0.65;;;14.60;99.90;;;;;;5077531;28;20098;-81
2022/10/25 08:24:50;;;;;;;0.10;0.00;;;14.60;99.90;;;;;;5077657;28;20047;-81
2022/10/25 08:27:15;;;;;;;0.00;0.00;;;14.60;99.90;;;;;;5078120;28;20506;-82
2022/10/25 08:29:42;;;;;;;0.43;0.30;;;14.50;99.90;;;;;;5095241;28;20055;-81
2022/10/25 08:32:07;;;;;;;1.85;0.40;;;14.50;99.90;;;;;;5077737;28;20570;-81
2022/10/25 08:34:33;;;;;;;0.00;0.00;;;14.50;99.90;;;;;;5094732;28;20126;-81
2022/10/25 08:36:59;;;;;;;21.73;1.10;;;14.40;99.90;;;;;;5077534;28;20185;-81
2022/10/25 08:39:24;;;;;;;0.00;0.00;;;14.40;99.90;;;;;;5077582;28;20092;-81
2022/10/25 08:41:59;;;;;;;0.00;0.00;;;14.30;99.90;;;;;;5094678;28;20044;-81
2022/10/25 08:44:49;;;;;;;0.00;0.00;;;14.40;99.90;;;;;;5095452;28;20040;-81
2022/10/25 08:47:36;;;;;;;0.10;0.10;;;14.40;99.90;;;;;;5077766;28;20055;-81
2022/10/25 08:50:12;;;;;;;0.00;0.00;;;14.50;99.90;;;;;;5095220;28;20079;-81
2022/10/25 08:53:01;;;;;;;1.65;0.43;;;14.80;99.90;;;;;;5094632;28;20040;-81
2022/10/25 08:55:54;;;;;;;0.68;0.57;;;14.90;99.90;;;;;;5077320;28;20048;-82
2022/10/25 08:58:28;;;;;;;0.00;0.00;;;15.40;99.90;;;;;;5091437;28;20138;-82
2022/10/25 09:00:56;;;;;;;0.30;0.17;;;15.80;99.90;;;;;;5077626;28;20143;-82
2022/10/25 09:03:24;;;;;;;0.60;0.05;;;16.20;99.90;;;;;;5093605;28;20048;-81
2022/10/25 09:06:08;;;;;;;0.20;0.20;;;16.50;99.90;;;;;;5077417;28;20063;-81
2022/10/25 09:09:00;;;;;;;0.08;0.00;;;17.10;99.90;;;;;;5094340;28;20411;-81
2022/10/25 09:11:28;;;;;;;0.00;0.00;;;17.60;99.90;;;;;;5036308;28;20053;-82
2022/10/25 09:13:59;;;;;;;1.13;0.50;;;18.10;99.90;;;;;;5036009;28;20052;-81
2022/10/25 09:16:31;;;;;;;0.52;0.10;;;18.50;99.90;;;;;;5036254;28;20118;-81
2022/10/25 09:18:56;;;;;;;0.00;0.00;;;18.80;99.90;;;;;;5036491;28;20052;-81
2022/10/25 09:21:25;;;;;;;0.90;0.52;;;18.80;99.90;;;;;;5035595;28;20049;-81
2022/10/25 09:24:01;;;;;;;0.10;0.05;;;18.80;99.90;;;;;;5035887;28;20049;-82
2022/10/25 09:26:40;;;;;;;0.00;0.00;;;18.90;99.90;;;;;;5035746;28;20468;-82
2022/10/25 09:29:28;;;;;;;0.77;0.45;;;18.50;99.90;;;;;;5034098;28;20057;-81
2022/10/25 09:31:57;;;;;;;0.00;0.00;;;18.30;99.90;;;;;;5036340;28;20399;-81
2022/10/25 09:34:26;;;;;;;2.45;1.13;;;18.30;99.90;;;;;;5035566;28;20084;-82
2022/10/25 09:36:58;;;;;;;0.15;0.15;;;18.10;99.90;;;;;;5034821;28;20455;-82
2022/10/25 09:39:30;;;;;;;0.90;0.20;;;17.90;99.90;;;;;;5035801;28;20084;-82
2022/10/25 09:41:58;;;;;;;0.00;0.00;;;17.80;99.90;;;;;;5035647;28;20061;-82
2022/10/25 09:44:45;;;;;;;0.00;0.00;;;17.90;99.90;;;;;;5019082;28;20041;-82
2022/10/25 09:47:30;;;;;;;0.15;0.10;;;17.90;99.90;;;;;;5035548;28;20068;-81
2022/10/25 09:50:01;;;;;;;0.08;0.08;;;18.00;99.90;;;;;;5073124;28;20506;-82
2022/10/25 09:52:42;;;;;;;0.00;0.00;;;18.00;99.90;;;;;;5073354;28;20543;-82
2022/10/25 09:55:31;;;;;;;0.00;0.00;;;17.90;99.90;;;;;;5056614;28;20127;-82
2022/10/25 09:57:56;;;;;;;0.00;0.00;;;17.70;99.90;;;;;;5056191;28;20053;-82
2022/10/25 10:00:22;;;;;;;0.00;0.00;;;17.40;99.90;;;;;;5072937;28;20050;-82
2022/10/25 10:02:48;;;;;;;0.20;0.20;;;17.30;99.90;;;;;;5073683;28;20044;-82
2022/10/25 10:05:15;;;;;;;0.00;0.00;;;17.10;99.90;;;;;;5072873;28;20091;-82
2022/10/25 10:07:43;;;;;;;2.88;0.30;;;16.90;99.90;;;;;;5073027;28;20064;-83
2022/10/25 10:10:16;;;;;;;0.28;0.28;;;16.80;99.90;;;;;;5072993;28;20396;-82
2022/10/25 10:12:54;;;;;;;0.30;0.25;;;16.80;99.90;;;;;;5072751;28;20040;-82
2022/10/25 10:15:26;;;;;;;0.10;0.10;;;16.90;99.90;;;;;;5072497;28;20045;-82
2022/10/25 10:18:42;;;;;;;0.00;0.00;;;17.10;99.90;;;;;;5073428;28;20423;-82
2022/10/25 10:21:11;;;;;;;0.13;0.13;;;17.40;99.90;;;;;;4918615;29;20103;-82
2022/10/25 10:24:01;;;;;;;0.00;0.00;;;17.50;99.90;;;;;;4918385;29;20138;-83
2022/10/25 10:26:33;;;;;;;0.10;0.10;;;17.60;99.90;;;;;;4918811;29;20111;-84
2022/10/25 10:29:19;;;;;;;1.45;0.45;;;17.50;99.90;;;;;;4918730;29;20067;-82
2022/10/25 10:31:58;;;;;;;0.00;0.00;;;17.30;99.90;;;;;;4918745;29;20064;-81
2022/10/25 10:34:25;;;;;;;0.30;0.30;;;17.30;99.90;;;;;;4918678;29;20045;-82
2022/10/25 10:37:19;;;;;;;0.00;0.00;;;17.40;99.90;;;;;;4918285;29;20075;-82
2022/10/25 10:39:56;;;;;;;0.80;0.43;;;17.50;99.90;;;;;;4918769;29;20104;-82
2022/10/25 10:42:30;;;;;;;0.00;0.00;;;17.90;99.90;;;;;;4918697;29;20114;-83
2022/10/25 10:45:07;;;;;;;0.10;0.10;;;18.10;99.90;;;;;;4918518;29;20060;-81
2022/10/25 10:47:37;;;;;;;0.00;0.00;;;18.30;99.90;;;;;;4918343;29;20058;-81
2022/10/25 10:50:24;;;;;;;0.00;0.00;;;18.20;99.90;;;;;;4918672;29;20047;-81
2022/10/25 10:52:58;;;;;;;0.10;0.10;;;18.00;99.90;;;;;;4919127;29;20071;-80
2022/10/25 10:55:42;;;;;;;0.15;0.15;;;18.00;99.90;;;;;;4918796;29;20039;-81
2022/10/25 10:58:28;;;;;;;0.00;0.00;;;18.10;99.90;;;;;;5028626;28;20059;-80
2022/10/25 11:01:07;;;;;;;0.00;0.00;;;18.20;99.90;;;;;;5072137;28;20369;-81
2022/10/25 11:03:40;;;;;;;1.15;0.25;;;18.20;99.90;;;;;;5072035;28;20144;-80
2022/10/25 11:06:24;;;;;;;0.10;0.10;;;18.40;99.90;;;;;;5072621;28;20086;-81
2022/10/25 11:09:03;;;;;;;0.30;0.30;;;18.40;99.90;;;;;;5055783;28;20060;-81
2022/10/25 11:11:28;;;;;;;3.70;0.30;;;18.50;99.90;;;;;;5072631;28;20040;-80
2022/10/25 11:13:59;;;;;;;0.00;0.00;;;18.60;99.90;;;;;;5055629;28;20043;-80
2022/10/25 11:16:46;;;;;;;1.77;0.45;;;18.60;99.90;;;;;;5055710;28;20052;-80
2022/10/25 11:19:39;;;;;;;0.00;0.00;;;18.70;99.90;;;;;;5072424;28;20048;-80
2022/10/25 11:22:44;;;;;;;0.10;0.10;;;18.60;99.90;;;;;;5055412;28;20064;-81
2022/10/25 11:25:34;;;;;;;0.70;0.13;;;18.20;99.90;;;;;;5072283;28;20055;-81
2022/10/25 11:28:22;;;;;;;0.00;0.00;;;18.00;99.90;;;;;;5074299;28;20108;-81
2022/10/25 11:31:14;;;;;;;0.03;0.00;;;17.90;99.90;;;;;;5076042;28;20087;-81
2022/10/25 11:34:19;;;;;;;0.00;0.00;;;17.80;99.90;;;;;;5058971;28;20088;-81
2022/10/25 11:37:10;;;;;;;0.00;0.00;;;17.90;99.90;;;;;;5058775;28;20488;-81
2022/10/25 11:40:00;;;;;;;0.35;0.20;;;18.10;99.90;;;;;;5051999;28;20060;-81
2022/10/25 11:42:44;;;;;;;0.22;0.22;;;18.10;99.90;;;;;;5058641;28;20393;-81
2022/10/25 11:45:19;;;;;;;0.10;0.10;;;18.20;99.90;;;;;;5075593;28;20559;-81
2022/10/25 11:47:59;;;;;;;2.38;0.52;;;18.00;99.90;;;;;;5075551;28;20048;-81
2022/10/25 11:50:48;;;;;;;0.20;0.20;;;17.80;99.90;;;;;;5059085;28;20040;-81
2022/10/25 11:53:35;;;;;;;0.00;0.00;;;17.60;99.90;;;;;;5075594;28;20048;-82
2022/10/25 11:56:14;;;;;;;0.30;0.30;;;17.50;99.90;;;;;;5075715;28;20128;-81
2022/10/25 11:58:56;;;;;;;0.57;0.52;;;17.40;99.90;;;;;;5075391;28;20049;-81
2022/10/25 12:01:37;;;;;;;0.00;0.00;;;17.30;99.90;;;;;;5075258;28;20431;-81
2022/10/25 12:04:31;;;;;;;2.05;0.40;;;17.50;99.90;;;;;;5075449;28;20044;-81
2022/10/25 12:07:11;;;;;;;0.00;0.00;;;17.50;99.90;;;;;;5075285;28;20052;-81
2022/10/25 12:09:52;;;;;;;0.00;0.00;;;17.40;99.90;;;;;;5075059;28;20049;-81
2022/10/25 12:12:25;;;;;;;0.00;0.00;;;17.30;99.90;;;;;;5059057;28;20044;-81
2022/10/25 12:14:56;;;;;;;0.00;0.00;;;17.20;99.90;;;;;;5058380;28;20106;-81
2022/10/25 12:17:27;;;;;;;16.98;0.85;;;17.10;99.90;;;;;;5075049;28;20090;-81
2022/10/25 12:19:56;;;;;;;0.00;0.00;;;17.00;99.90;;;;;;5058060;28;20405;-81
2022/10/25 12:22:56;;;;;;;0.45;0.10;;;17.00;99.90;;;;;;5075121;28;20131;-80
2022/10/25 12:25:22;;;;;;;0.00;0.00;;;17.10;99.90;;;;;;5017586;28;20176;-81
2022/10/25 12:27:54;;;;;;;0.00;0.00;;;17.10;99.90;;;;;;5017309;28;20148;-81
2022/10/25 12:30:20;;;;;;;3.60;0.30;;;17.20;99.90;;;;;;5001139;28;20088;-81
2022/10/25 12:32:54;;;;;;;0.00;0.00;;;17.10;99.90;;;;;;5033791;28;20045;-80
2022/10/25 12:35:32;;;;;;;0.00;0.00;;;17.10;99.90;;;;;;5000973;28;20049;-80
2022/10/25 12:38:03;;;;;;;0.00;0.00;;;17.40;99.90;;;;;;5016793;28;20046;-81
2022/10/25 12:40:38;;;;;;;0.00;0.00;;;17.80;99.90;;;;;;5017274;28;20096;-80
2022/10/25 12:43:09;;;;;;;;;;;17.90;99.90;;;;;;5017553;28;20573;-81
2022/10/25 12:45:47;;;;;;;0.00;0.00;;;17.90;99.90;;;;;;5001096;28;19928;-80
2022/10/25 12:48:37;;;;;;;0.00;0.00;;;18.00;99.90;;;;;;5017301;28;20402;-81
2022/10/25 12:51:05;;;;;;;1.17;0.52;;;18.10;99.90;;;;;;5017024;28;20053;-80
2022/10/25 12:53:54;;;;;;;0.00;0.00;;;18.40;99.90;;;;;;5016557;28;20051;-81
2022/10/25 12:56:42;;;;;;;0.70;0.45;;;18.40;99.90;;;;;;5000666;28;20398;-81
2022/10/25 12:59:30;;;;;;;0.00;0.00;;;18.40;99.90;;;;;;5016823;28;20045;-83
2022/10/25 13:02:21;;;;;;;0.22;0.22;;;18.40;99.90;;;;;;5053941;28;20723;-80
2022/10/25 13:05:16;;;;;;;1.75;0.10;;;18.40;99.90;;;;;;5057276;28;20436;-81
2022/10/25 13:07:42;;;;;;;0.98;0.22;;;18.40;99.90;;;;;;5074404;28;20047;-81
2022/10/25 13:10:18;;;;;;;0.00;0.00;;;18.40;99.90;;;;;;5057198;28;20049;-80
2022/10/25 13:13:02;;;;;;;0.32;0.32;;;18.40;99.90;;;;;;5073921;28;20080;-80